createdAt,value
2022-12-01T00:05:06.881Z,101541.54
2022-12-01T00:15:11.724Z,101543.59
2022-12-01T00:25:18.615Z,101542.31
2022-12-01T00:35:22.198Z,101542.84
2022-12-01T00:45:26.065Z,101543.58
2022-12-01T00:55:29.619Z,101540.63
2022-12-01T01:05:41.123Z,101541.53
2022-12-01T01:15:44.895Z,101534.35
2022-12-01T01:25:48.438Z,101526.73
2022-12-01T01:35:53.608Z,101516.90
2022-12-01T01:45:57.273Z,101500.88
2022-12-01T01:56:03.377Z,101500.66
2022-12-01T02:06:12.031Z,101507.98
2022-12-01T02:16:41.981Z,101502.89
2022-12-01T02:27:25.133Z,101497.19
2022-12-01T02:37:46.396Z,101496.77
2022-12-01T02:47:56.196Z,101496.84
2022-12-01T02:58:00.352Z,101502.00
2022-12-01T03:08:14.087Z,101499.44
2022-12-01T03:18:37.901Z,101497.61
2022-12-01T03:28:47.435Z,101497.13
2022-12-01T03:39:00.340Z,101504.54
2022-12-01T03:49:06.143Z,101507.27
2022-12-01T03:59:11.592Z,101502.28
2022-12-01T04:09:15.156Z,101500.23
2022-12-01T04:19:21.867Z,101494.48
2022-12-01T04:29:25.413Z,101492.82
2022-12-01T04:39:28.949Z,101496.88
2022-12-01T04:49:33.932Z,101498.71
2022-12-01T04:59:39.356Z,101494.77
2022-12-01T05:09:44.417Z,101494.66
2022-12-01T05:20:06.674Z,101494.19
2022-12-01T05:30:12.438Z,101494.58
2022-12-01T05:40:18.439Z,101490.56
2022-12-01T05:50:23.481Z,101496.56
2022-12-01T06:00:27.264Z,101500.17
2022-12-01T06:10:30.905Z,101506.65
2022-12-01T06:20:34.397Z,101500.14
2022-12-01T06:30:40.072Z,101505.23
2022-12-01T06:40:44.625Z,101502.58
2022-12-01T06:50:48.415Z,101499.55
2022-12-01T07:00:52.357Z,101501.16
2022-12-01T07:11:01.046Z,101502.31
2022-12-01T07:21:07.676Z,101506.89
2022-12-01T07:31:15.984Z,101513.64
2022-12-01T07:41:21.896Z,101512.00
2022-12-01T07:51:27.341Z,101516.75
2022-12-01T08:01:32.961Z,101521.02
2022-12-01T08:11:36.884Z,101516.03
2022-12-01T08:21:41.202Z,101514.48
2022-12-01T08:31:45.176Z,101518.98
2022-12-01T08:41:49.119Z,101527.98
2022-12-01T08:51:52.705Z,101527.58
2022-12-01T09:01:58.059Z,101527.42
2022-12-01T09:12:03.788Z,101526.06
2022-12-01T09:22:08.444Z,101515.49
2022-12-01T09:32:13.643Z,101513.00
2022-12-01T09:42:33.791Z,101507.09
2022-12-01T09:52:43.766Z,101491.19
2022-12-01T10:03:12.813Z,101484.49
2022-12-01T10:13:23.314Z,101479.38
2022-12-01T10:23:47.921Z,101473.65
2022-12-01T10:34:00.318Z,101466.27
2022-12-01T10:44:06.225Z,101467.52
2022-12-01T10:54:13.481Z,101459.49
2022-12-01T11:04:45.424Z,101456.95
2022-12-01T11:14:57.602Z,101457.75
2022-12-01T11:25:06.910Z,101459.70
2022-12-01T11:35:13.593Z,101460.55
2022-12-01T11:45:20.823Z,101458.52
2022-12-01T11:55:27.589Z,101446.98
2022-12-01T12:06:17.712Z,101437.19
2022-12-01T12:17:08.989Z,101430.05
2022-12-01T12:27:47.419Z,101431.19
2022-12-01T12:37:50.988Z,101439.77
2022-12-01T12:48:14.782Z,101441.34
2022-12-01T12:58:29.488Z,101427.02
2022-12-01T13:08:56.622Z,101420.52
2022-12-01T13:19:12.799Z,101420.34
2022-12-01T13:29:20.899Z,101425.52
2022-12-01T13:39:29.776Z,101424.20
2022-12-01T13:49:42.396Z,101423.08
2022-12-01T14:00:01.122Z,101418.76
2022-12-01T14:10:26.164Z,101414.84
2022-12-01T14:20:36.122Z,101416.52
2022-12-01T14:30:47.841Z,101410.61
2022-12-01T14:40:55.732Z,101417.16
2022-12-01T14:51:20.014Z,101407.66
2022-12-01T15:13:59.529Z,101404.89
2022-12-01T15:24:22.415Z,101400.23
2022-12-01T15:34:31.028Z,101396.27
2022-12-01T15:44:37.061Z,101393.21
2022-12-01T15:54:40.880Z,101396.61
2022-12-01T16:04:44.525Z,101400.23
2022-12-01T16:15:10.194Z,101395.81
2022-12-01T16:25:36.346Z,101403.35
2022-12-01T16:35:39.937Z,101405.64
2022-12-01T16:45:44.822Z,101391.86
2022-12-01T16:55:53.263Z,101389.66
2022-12-01T17:06:00.863Z,101384.58
2022-12-01T17:16:07.270Z,101389.14
2022-12-01T17:26:14.349Z,101398.89
2022-12-01T17:36:19.308Z,101399.56
2022-12-01T17:46:23.534Z,101392.24
2022-12-01T17:56:27.328Z,101395.94
2022-12-01T18:06:30.995Z,101395.92
2022-12-01T18:16:35.047Z,101400.66
2022-12-01T18:26:40.688Z,101400.59
2022-12-01T18:36:44.466Z,101395.94
2022-12-01T18:46:48.132Z,101400.67
2022-12-01T18:56:59.041Z,101403.66
2022-12-01T19:07:03.385Z,101400.77
2022-12-01T19:17:07.513Z,101398.33
2022-12-01T19:27:11.190Z,101394.14
2022-12-01T19:37:14.814Z,101397.35
2022-12-01T19:47:22.078Z,101404.52
2022-12-01T19:57:26.312Z,101402.60
2022-12-01T20:07:30.731Z,101400.98
2022-12-01T20:17:37.954Z,101405.98
2022-12-01T20:27:42.807Z,101405.30
2022-12-01T20:37:46.581Z,101399.67
2022-12-01T20:47:50.380Z,101398.55
2022-12-01T20:57:54.007Z,101396.23
2022-12-01T21:07:57.777Z,101400.48
2022-12-01T21:18:10.021Z,101407.48
2022-12-01T21:28:19.754Z,101401.92
2022-12-01T21:38:23.574Z,101406.30
2022-12-01T21:48:35.300Z,101408.65
2022-12-01T21:58:39.133Z,101411.77
2022-12-01T22:08:46.509Z,101408.09
2022-12-01T22:18:56.302Z,101407.92
2022-12-01T22:29:00.734Z,101406.96
2022-12-01T22:39:25.305Z,101405.70
2022-12-01T22:49:30.210Z,101402.95
2022-12-01T22:59:39.723Z,101394.82
2022-12-01T23:09:44.639Z,101380.23
2022-12-01T23:19:55.198Z,101373.91
2022-12-01T23:29:59.435Z,101368.90
2022-12-01T23:40:15.266Z,101368.08
2022-12-01T23:50:25.296Z,101367.91
